sensor_id;sensor_type;location;lat;lon;timestamp;P1;durP1;ratioP1;P2;durP2;ratioP2
3949;SDS011;53057;50.988;6.314;2023-11-21T00:00:28;316.20;;;79.37;;
3949;SDS011;53057;50.988;6.314;2023-11-21T00:03:10;465.83;;;104.30;;
3949;SDS011;53057;50.988;6.314;2023-11-21T00:06:14;664.53;;;147.20;;
3949;SDS011;53057;50.988;6.314;2023-11-21T00:08:41;673.40;;;146.00;;
3949;SDS011;53057;50.988;6.314;2023-11-21T00:11:12;709.70;;;153.47;;
3949;SDS011;53057;50.988;6.314;2023-11-21T00:13:53;650.40;;;147.33;;
3949;SDS011;53057;50.988;6.314;2023-11-21T00:16:22;728.37;;;159.37;;
3949;SDS011;53057;50.988;6.314;2023-11-21T00:18:49;741.53;;;170.47;;
3949;SDS011;53057;50.988;6.314;2023-11-21T00:21:18;635.40;;;142.07;;
3949;SDS011;53057;50.988;6.314;2023-11-21T00:23:47;721.23;;;154.87;;
3949;SDS011;53057;50.988;6.314;2023-11-21T00:26:13;773.33;;;163.63;;
3949;SDS011;53057;50.988;6.314;2023-11-21T00:28:45;824.63;;;170.80;;
3949;SDS011;53057;50.988;6.314;2023-11-21T00:31:13;775.33;;;162.10;;
3949;SDS011;53057;50.988;6.314;2023-11-21T00:33:40;619.93;;;131.30;;
3949;SDS011;53057;50.988;6.314;2023-11-21T00:36:07;560.57;;;116.73;;
3949;SDS011;53057;50.988;6.314;2023-11-21T00:38:42;475.47;;;103.30;;
3949;SDS011;53057;50.988;6.314;2023-11-21T00:41:09;492.10;;;109.20;;
3949;SDS011;53057;50.988;6.314;2023-11-21T00:43:36;562.30;;;125.97;;
3949;SDS011;53057;50.988;6.314;2023-11-21T00:46:04;527.93;;;119.03;;
3949;SDS011;53057;50.988;6.314;2023-11-21T00:48:31;590.50;;;133.20;;
3949;SDS011;53057;50.988;6.314;2023-11-21T00:50:58;526.50;;;129.13;;
3949;SDS011;53057;50.988;6.314;2023-11-21T00:53:26;612.80;;;145.07;;
3949;SDS011;53057;50.988;6.314;2023-11-21T00:55:54;724.33;;;161.40;;
3949;SDS011;53057;50.988;6.314;2023-11-21T00:58:24;635.67;;;120.67;;
3949;SDS011;53057;50.988;6.314;2023-11-21T01:00:51;511.13;;;90.60;;
3949;SDS011;53057;50.988;6.314;2023-11-21T01:03:18;502.87;;;93.03;;
3949;SDS011;53057;50.988;6.314;2023-11-21T01:05:45;515.77;;;93.50;;
3949;SDS011;53057;50.988;6.314;2023-11-21T01:08:13;545.23;;;100.93;;
3949;SDS011;53057;50.988;6.314;2023-11-21T01:10:41;392.33;;;78.30;;
3949;SDS011;53057;50.988;6.314;2023-11-21T01:13:08;438.10;;;86.00;;
3949;SDS011;53057;50.988;6.314;2023-11-21T01:15:36;387.67;;;75.30;;
3949;SDS011;53057;50.988;6.314;2023-11-21T01:18:05;468.97;;;95.27;;
3949;SDS011;53057;50.988;6.314;2023-11-21T01:20:32;520.77;;;97.40;;
3949;SDS011;53057;50.988;6.314;2023-11-21T01:22:59;507.33;;;104.77;;
3949;SDS011;53057;50.988;6.314;2023-11-21T01:25:26;465.67;;;94.90;;
3949;SDS011;53057;50.988;6.314;2023-11-21T01:27:53;437.57;;;92.27;;
3949;SDS011;53057;50.988;6.314;2023-11-21T01:30:21;399.80;;;85.20;;
3949;SDS011;53057;50.988;6.314;2023-11-21T01:32:48;418.90;;;90.87;;
3949;SDS011;53057;50.988;6.314;2023-11-21T01:35:17;397.10;;;85.23;;
3949;SDS011;53057;50.988;6.314;2023-11-21T01:37:45;285.57;;;70.77;;
3949;SDS011;53057;50.988;6.314;2023-11-21T01:40:13;222.90;;;59.37;;
3949;SDS011;53057;50.988;6.314;2023-11-21T01:42:42;289.40;;;70.90;;
3949;SDS011;53057;50.988;6.314;2023-11-21T01:45:10;215.60;;;62.77;;
3949;SDS011;53057;50.988;6.314;2023-11-21T01:47:39;296.87;;;67.37;;
3949;SDS011;53057;50.988;6.314;2023-11-21T01:50:08;268.57;;;63.83;;
3949;SDS011;53057;50.988;6.314;2023-11-21T01:52:35;302.53;;;71.10;;
3949;SDS011;53057;50.988;6.314;2023-11-21T01:55:04;314.13;;;73.03;;
3949;SDS011;53057;50.988;6.314;2023-11-21T01:57:33;343.83;;;73.80;;
3949;SDS011;53057;50.988;6.314;2023-11-21T01:59:59;464.90;;;98.40;;
3949;SDS011;53057;50.988;6.314;2023-11-21T02:02:43;473.57;;;98.87;;
3949;SDS011;53057;50.988;6.314;2023-11-21T02:05:10;490.73;;;109.60;;
3949;SDS011;53057;50.988;6.314;2023-11-21T02:07:39;536.77;;;118.80;;
3949;SDS011;53057;50.988;6.314;2023-11-21T02:10:07;636.33;;;140.80;;
3949;SDS011;53057;50.988;6.314;2023-11-21T02:12:35;650.80;;;140.70;;
3949;SDS011;53057;50.988;6.314;2023-11-21T02:15:02;626.47;;;142.80;;
3949;SDS011;53057;50.988;6.314;2023-11-21T02:17:32;712.00;;;146.83;;
3949;SDS011;53057;50.988;6.314;2023-11-21T02:20:00;651.17;;;140.27;;
3949;SDS011;53057;50.988;6.314;2023-11-21T02:22:30;715.87;;;152.00;;
3949;SDS011;53057;50.988;6.314;2023-11-21T02:24:58;642.13;;;140.47;;
3949;SDS011;53057;50.988;6.314;2023-11-21T02:27:26;691.50;;;150.67;;
3949;SDS011;53057;50.988;6.314;2023-11-21T02:29:54;663.13;;;143.50;;
3949;SDS011;53057;50.988;6.314;2023-11-21T02:32:21;675.33;;;147.80;;
3949;SDS011;53057;50.988;6.314;2023-11-21T02:34:49;672.13;;;149.37;;
3949;SDS011;53057;50.988;6.314;2023-11-21T02:37:17;553.73;;;119.23;;
3949;SDS011;53057;50.988;6.314;2023-11-21T02:39:44;479.37;;;96.10;;
3949;SDS011;53057;50.988;6.314;2023-11-21T02:42:12;412.77;;;91.23;;
3949;SDS011;53057;50.988;6.314;2023-11-21T02:44:39;409.87;;;89.83;;
3949;SDS011;53057;50.988;6.314;2023-11-21T02:47:06;402.90;;;81.20;;
3949;SDS011;53057;50.988;6.314;2023-11-21T02:49:34;365.73;;;79.23;;
3949;SDS011;53057;50.988;6.314;2023-11-21T02:52:02;360.83;;;80.57;;
3949;SDS011;53057;50.988;6.314;2023-11-21T02:54:30;315.50;;;75.43;;
3949;SDS011;53057;50.988;6.314;2023-11-21T02:57:00;351.87;;;81.23;;
3949;SDS011;53057;50.988;6.314;2023-11-21T02:59:27;349.60;;;75.07;;
3949;SDS011;53057;50.988;6.314;2023-11-21T03:01:55;285.53;;;66.77;;
3949;SDS011;53057;50.988;6.314;2023-11-21T03:04:24;318.33;;;68.77;;
3949;SDS011;53057;50.988;6.314;2023-11-21T03:06:51;280.83;;;69.37;;
3949;SDS011;53057;50.988;6.314;2023-11-21T03:09:18;216.87;;;59.70;;
3949;SDS011;53057;50.988;6.314;2023-11-21T03:11:47;241.63;;;63.07;;
3949;SDS011;53057;50.988;6.314;2023-11-21T03:14:14;239.80;;;65.77;;
3949;SDS011;53057;50.988;6.314;2023-11-21T03:16:41;280.67;;;67.03;;
3949;SDS011;53057;50.988;6.314;2023-11-21T03:19:09;338.50;;;68.60;;
3949;SDS011;53057;50.988;6.314;2023-11-21T03:21:36;258.40;;;65.90;;
3949;SDS011;53057;50.988;6.314;2023-11-21T03:24:03;242.57;;;62.40;;
3949;SDS011;53057;50.988;6.314;2023-11-21T03:26:30;223.50;;;59.87;;
3949;SDS011;53057;50.988;6.314;2023-11-21T03:28:57;236.70;;;65.93;;
3949;SDS011;53057;50.988;6.314;2023-11-21T03:31:24;294.90;;;70.37;;
3949;SDS011;53057;50.988;6.314;2023-11-21T03:33:51;287.03;;;71.77;;
3949;SDS011;53057;50.988;6.314;2023-11-21T03:36:19;243.50;;;61.67;;
3949;SDS011;53057;50.988;6.314;2023-11-21T03:38:47;271.80;;;67.97;;
3949;SDS011;53057;50.988;6.314;2023-11-21T03:41:15;251.67;;;67.90;;
3949;SDS011;53057;50.988;6.314;2023-11-21T03:43:45;238.27;;;64.37;;
3949;SDS011;53057;50.988;6.314;2023-11-21T03:46:15;287.57;;;70.47;;
3949;SDS011;53057;50.988;6.314;2023-11-21T03:48:42;262.10;;;71.17;;
3949;SDS011;53057;50.988;6.314;2023-11-21T03:51:09;216.20;;;62.50;;
3949;SDS011;53057;50.988;6.314;2023-11-21T03:53:36;185.17;;;56.93;;
3949;SDS011;53057;50.988;6.314;2023-11-21T03:56:03;238.70;;;64.90;;
3949;SDS011;53057;50.988;6.314;2023-11-21T03:58:32;195.33;;;58.80;;
3949;SDS011;53057;50.988;6.314;2023-11-21T04:00:59;256.90;;;66.03;;
3949;SDS011;53057;50.988;6.314;2023-11-21T04:03:26;251.17;;;64.00;;
3949;SDS011;53057;50.988;6.314;2023-11-21T04:05:53;187.07;;;56.93;;
3949;SDS011;53057;50.988;6.314;2023-11-21T04:08:23;178.47;;;56.17;;
3949;SDS011;53057;50.988;6.314;2023-11-21T04:11:13;163.43;;;54.70;;
3949;SDS011;53057;50.988;6.314;2023-11-21T04:13:40;190.90;;;56.47;;
3949;SDS011;53057;50.988;6.314;2023-11-21T04:16:09;188.70;;;55.60;;
3949;SDS011;53057;50.988;6.314;2023-11-21T04:18:40;170.83;;;51.30;;
3949;SDS011;53057;50.988;6.314;2023-11-21T04:21:08;166.90;;;53.13;;
3949;SDS011;53057;50.988;6.314;2023-11-21T04:23:35;166.33;;;50.50;;
3949;SDS011;53057;50.988;6.314;2023-11-21T04:26:03;164.33;;;52.70;;
3949;SDS011;53057;50.988;6.314;2023-11-21T04:28:30;168.17;;;53.60;;
3949;SDS011;53057;50.988;6.314;2023-11-21T04:30:58;197.63;;;56.80;;
3949;SDS011;53057;50.988;6.314;2023-11-21T04:33:26;194.63;;;56.70;;
3949;SDS011;53057;50.988;6.314;2023-11-21T04:35:54;181.60;;;54.73;;
3949;SDS011;53057;50.988;6.314;2023-11-21T04:38:20;174.53;;;57.63;;
3949;SDS011;53057;50.988;6.314;2023-11-21T04:40:47;176.10;;;56.70;;
3949;SDS011;53057;50.988;6.314;2023-11-21T04:43:15;187.43;;;62.40;;
3949;SDS011;53057;50.988;6.314;2023-11-21T04:45:42;200.93;;;60.93;;
3949;SDS011;53057;50.988;6.314;2023-11-21T04:48:09;212.30;;;60.17;;
3949;SDS011;53057;50.988;6.314;2023-11-21T04:50:36;197.63;;;57.73;;
3949;SDS011;53057;50.988;6.314;2023-11-21T04:53:03;210.73;;;56.10;;
3949;SDS011;53057;50.988;6.314;2023-11-21T04:55:32;184.00;;;58.37;;
3949;SDS011;53057;50.988;6.314;2023-11-21T04:58:00;175.50;;;55.83;;
3949;SDS011;53057;50.988;6.314;2023-11-21T05:00:28;210.30;;;57.00;;
3949;SDS011;53057;50.988;6.314;2023-11-21T05:02:55;202.90;;;57.17;;
3949;SDS011;53057;50.988;6.314;2023-11-21T05:05:22;176.47;;;54.80;;
3949;SDS011;53057;50.988;6.314;2023-11-21T05:07:49;191.03;;;55.23;;
3949;SDS011;53057;50.988;6.314;2023-11-21T05:10:17;174.77;;;57.40;;
3949;SDS011;53057;50.988;6.314;2023-11-21T05:12:44;186.07;;;57.73;;
3949;SDS011;53057;50.988;6.314;2023-11-21T05:15:14;196.53;;;55.80;;
3949;SDS011;53057;50.988;6.314;2023-11-21T05:17:41;174.03;;;53.87;;
3949;SDS011;53057;50.988;6.314;2023-11-21T05:20:11;197.67;;;55.27;;
3949;SDS011;53057;50.988;6.314;2023-11-21T05:22:40;211.40;;;58.40;;
3949;SDS011;53057;50.988;6.314;2023-11-21T05:25:08;180.90;;;55.87;;
3949;SDS011;53057;50.988;6.314;2023-11-21T05:27:36;179.87;;;54.30;;
3949;SDS011;53057;50.988;6.314;2023-11-21T05:30:04;183.13;;;53.77;;
3949;SDS011;53057;50.988;6.314;2023-11-21T05:32:38;179.43;;;54.70;;
3949;SDS011;53057;50.988;6.314;2023-11-21T05:35:05;219.93;;;55.93;;
3949;SDS011;53057;50.988;6.314;2023-11-21T05:37:37;209.07;;;54.70;;
3949;SDS011;53057;50.988;6.314;2023-11-21T05:40:06;224.90;;;58.50;;
3949;SDS011;53057;50.988;6.314;2023-11-21T05:42:33;202.57;;;52.83;;
3949;SDS011;53057;50.988;6.314;2023-11-21T05:45:01;235.20;;;59.13;;
3949;SDS011;53057;50.988;6.314;2023-11-21T05:47:45;194.77;;;56.43;;
3949;SDS011;53057;50.988;6.314;2023-11-21T05:50:14;190.07;;;53.10;;
3949;SDS011;53057;50.988;6.314;2023-11-21T05:52:42;159.60;;;50.33;;
3949;SDS011;53057;50.988;6.314;2023-11-21T05:55:09;194.00;;;52.30;;
3949;SDS011;53057;50.988;6.314;2023-11-21T05:57:37;189.87;;;54.50;;
3949;SDS011;53057;50.988;6.314;2023-11-21T06:00:05;174.50;;;51.00;;
3949;SDS011;53057;50.988;6.314;2023-11-21T06:02:47;176.60;;;51.27;;
3949;SDS011;53057;50.988;6.314;2023-11-21T06:05:14;157.43;;;49.47;;
3949;SDS011;53057;50.988;6.314;2023-11-21T06:07:40;185.10;;;51.20;;
3949;SDS011;53057;50.988;6.314;2023-11-21T06:10:10;181.30;;;52.10;;
3949;SDS011;53057;50.988;6.314;2023-11-21T06:12:38;192.43;;;51.23;;
3949;SDS011;53057;50.988;6.314;2023-11-21T06:15:06;167.93;;;48.50;;
3949;SDS011;53057;50.988;6.314;2023-11-21T06:17:36;175.73;;;49.07;;
3949;SDS011;53057;50.988;6.314;2023-11-21T06:20:05;149.67;;;48.03;;
3949;SDS011;53057;50.988;6.314;2023-11-21T06:25:04;180.70;;;50.87;;
3949;SDS011;53057;50.988;6.314;2023-11-21T06:27:32;162.07;;;48.17;;
3949;SDS011;53057;50.988;6.314;2023-11-21T06:29:59;188.30;;;50.87;;
3949;SDS011;53057;50.988;6.314;2023-11-21T06:32:27;175.83;;;52.73;;
3949;SDS011;53057;50.988;6.314;2023-11-21T06:34:56;185.13;;;49.47;;
3949;SDS011;53057;50.988;6.314;2023-11-21T06:37:28;203.40;;;49.93;;
3949;SDS011;53057;50.988;6.314;2023-11-21T06:39:56;205.00;;;51.30;;
3949;SDS011;53057;50.988;6.314;2023-11-21T06:42:26;199.07;;;52.73;;
3949;SDS011;53057;50.988;6.314;2023-11-21T06:44:55;203.87;;;53.50;;
3949;SDS011;53057;50.988;6.314;2023-11-21T06:47:26;188.27;;;50.27;;
3949;SDS011;53057;50.988;6.314;2023-11-21T06:49:54;225.43;;;56.60;;
3949;SDS011;53057;50.988;6.314;2023-11-21T06:52:21;225.33;;;55.40;;
3949;SDS011;53057;50.988;6.314;2023-11-21T06:54:50;210.03;;;53.47;;
3949;SDS011;53057;50.988;6.314;2023-11-21T06:57:18;202.40;;;55.10;;
3949;SDS011;53057;50.988;6.314;2023-11-21T06:59:46;250.13;;;57.93;;
3949;SDS011;53057;50.988;6.314;2023-11-21T07:02:13;257.40;;;57.30;;
3949;SDS011;53057;50.988;6.314;2023-11-21T07:04:41;252.80;;;56.90;;
3949;SDS011;53057;50.988;6.314;2023-11-21T07:07:07;254.37;;;60.00;;
3949;SDS011;53057;50.988;6.314;2023-11-21T07:09:35;243.63;;;59.70;;
3949;SDS011;53057;50.988;6.314;2023-11-21T07:12:03;237.03;;;56.70;;
3949;SDS011;53057;50.988;6.314;2023-11-21T07:14:31;260.47;;;58.27;;
3949;SDS011;53057;50.988;6.314;2023-11-21T07:16:59;267.50;;;56.13;;
3949;SDS011;53057;50.988;6.314;2023-11-21T07:19:27;284.27;;;61.63;;
3949;SDS011;53057;50.988;6.314;2023-11-21T07:21:56;301.17;;;60.10;;
3949;SDS011;53057;50.988;6.314;2023-11-21T07:24:24;324.87;;;64.63;;
3949;SDS011;53057;50.988;6.314;2023-11-21T07:26:53;302.73;;;59.20;;
3949;SDS011;53057;50.988;6.314;2023-11-21T07:29:23;297.87;;;65.27;;
3949;SDS011;53057;50.988;6.314;2023-11-21T07:31:53;272.13;;;62.30;;
3949;SDS011;53057;50.988;6.314;2023-11-21T07:34:21;336.20;;;66.13;;
3949;SDS011;53057;50.988;6.314;2023-11-21T07:36:49;319.50;;;59.57;;
3949;SDS011;53057;50.988;6.314;2023-11-21T07:39:16;373.03;;;65.90;;
3949;SDS011;53057;50.988;6.314;2023-11-21T07:41:43;369.60;;;63.03;;
3949;SDS011;53057;50.988;6.314;2023-11-21T07:44:16;334.93;;;63.17;;
3949;SDS011;53057;50.988;6.314;2023-11-21T07:46:44;378.93;;;71.07;;
3949;SDS011;53057;50.988;6.314;2023-11-21T07:49:12;438.03;;;71.77;;
3949;SDS011;53057;50.988;6.314;2023-11-21T07:51:44;392.00;;;67.77;;
3949;SDS011;53057;50.988;6.314;2023-11-21T07:54:11;382.83;;;69.20;;
3949;SDS011;53057;50.988;6.314;2023-11-21T07:56:39;469.87;;;77.33;;
3949;SDS011;53057;50.988;6.314;2023-11-21T07:59:07;401.60;;;67.20;;
3949;SDS011;53057;50.988;6.314;2023-11-21T08:01:34;462.37;;;80.80;;
3949;SDS011;53057;50.988;6.314;2023-11-21T08:04:02;415.03;;;72.67;;
3949;SDS011;53057;50.988;6.314;2023-11-21T08:06:31;471.67;;;76.77;;
3949;SDS011;53057;50.988;6.314;2023-11-21T08:08:59;487.73;;;80.83;;
3949;SDS011;53057;50.988;6.314;2023-11-21T08:11:27;439.00;;;75.67;;
3949;SDS011;53057;50.988;6.314;2023-11-21T08:13:56;361.60;;;60.07;;
3949;SDS011;53057;50.988;6.314;2023-11-21T08:16:24;344.70;;;68.47;;
3949;SDS011;53057;50.988;6.314;2023-11-21T08:18:51;392.97;;;63.17;;
3949;SDS011;53057;50.988;6.314;2023-11-21T08:21:18;391.33;;;63.77;;
3949;SDS011;53057;50.988;6.314;2023-11-21T08:23:46;380.43;;;62.10;;
3949;SDS011;53057;50.988;6.314;2023-11-21T08:26:20;316.70;;;59.47;;
3949;SDS011;53057;50.988;6.314;2023-11-21T08:28:48;329.43;;;56.53;;
3949;SDS011;53057;50.988;6.314;2023-11-21T08:31:15;331.73;;;65.17;;
3949;SDS011;53057;50.988;6.314;2023-11-21T08:33:42;312.70;;;59.47;;
3949;SDS011;53057;50.988;6.314;2023-11-21T08:36:10;356.90;;;67.10;;
3949;SDS011;53057;50.988;6.314;2023-11-21T08:38:39;359.07;;;66.97;;
3949;SDS011;53057;50.988;6.314;2023-11-21T08:41:08;313.57;;;59.63;;
3949;SDS011;53057;50.988;6.314;2023-11-21T08:43:35;344.13;;;61.67;;
3949;SDS011;53057;50.988;6.314;2023-11-21T08:46:06;355.23;;;63.00;;
3949;SDS011;53057;50.988;6.314;2023-11-21T08:48:36;352.77;;;62.87;;
3949;SDS011;53057;50.988;6.314;2023-11-21T08:51:04;447.27;;;71.00;;
3949;SDS011;53057;50.988;6.314;2023-11-21T08:53:32;338.13;;;59.73;;
3949;SDS011;53057;50.988;6.314;2023-11-21T08:56:00;283.93;;;60.70;;
3949;SDS011;53057;50.988;6.314;2023-11-21T08:58:27;312.73;;;59.30;;
3949;SDS011;53057;50.988;6.314;2023-11-21T09:00:55;289.97;;;56.40;;
3949;SDS011;53057;50.988;6.314;2023-11-21T09:03:24;278.97;;;57.00;;
3949;SDS011;53057;50.988;6.314;2023-11-21T09:05:52;282.20;;;53.93;;
3949;SDS011;53057;50.988;6.314;2023-11-21T09:08:19;254.80;;;49.53;;
3949;SDS011;53057;50.988;6.314;2023-11-21T09:10:47;243.20;;;50.23;;
3949;SDS011;53057;50.988;6.314;2023-11-21T09:13:15;196.83;;;45.63;;
3949;SDS011;53057;50.988;6.314;2023-11-21T09:15:44;200.17;;;46.83;;
3949;SDS011;53057;50.988;6.314;2023-11-21T09:18:13;217.40;;;48.80;;
3949;SDS011;53057;50.988;6.314;2023-11-21T09:20:41;173.23;;;43.53;;
3949;SDS011;53057;50.988;6.314;2023-11-21T09:23:11;183.17;;;43.40;;
3949;SDS011;53057;50.988;6.314;2023-11-21T09:25:39;148.73;;;39.30;;
3949;SDS011;53057;50.988;6.314;2023-11-21T09:28:07;146.73;;;37.83;;
3949;SDS011;53057;50.988;6.314;2023-11-21T09:30:35;159.20;;;41.23;;
3949;SDS011;53057;50.988;6.314;2023-11-21T09:33:03;157.33;;;38.63;;
3949;SDS011;53057;50.988;6.314;2023-11-21T09:35:33;124.77;;;36.00;;
3949;SDS011;53057;50.988;6.314;2023-11-21T09:38:01;142.87;;;38.17;;
3949;SDS011;53057;50.988;6.314;2023-11-21T09:40:33;139.83;;;39.30;;
3949;SDS011;53057;50.988;6.314;2023-11-21T09:43:00;115.70;;;35.37;;
3949;SDS011;53057;50.988;6.314;2023-11-21T09:45:36;128.50;;;37.57;;
3949;SDS011;53057;50.988;6.314;2023-11-21T09:48:05;119.20;;;35.53;;
3949;SDS011;53057;50.988;6.314;2023-11-21T09:50:33;119.53;;;32.70;;
3949;SDS011;53057;50.988;6.314;2023-11-21T09:53:08;116.93;;;33.17;;
3949;SDS011;53057;50.988;6.314;2023-11-21T09:55:39;130.43;;;34.60;;
3949;SDS011;53057;50.988;6.314;2023-11-21T09:58:08;120.00;;;33.77;;
3949;SDS011;53057;50.988;6.314;2023-11-21T10:00:42;124.73;;;33.50;;
3949;SDS011;53057;50.988;6.314;2023-11-21T10:03:11;110.07;;;33.80;;
3949;SDS011;53057;50.988;6.314;2023-11-21T10:05:39;104.53;;;30.57;;
3949;SDS011;53057;50.988;6.314;2023-11-21T10:08:10;96.87;;;31.23;;
3949;SDS011;53057;50.988;6.314;2023-11-21T10:10:37;90.73;;;29.53;;
3949;SDS011;53057;50.988;6.314;2023-11-21T10:13:05;87.57;;;30.57;;
3949;SDS011;53057;50.988;6.314;2023-11-21T10:15:34;80.80;;;25.77;;
3949;SDS011;53057;50.988;6.314;2023-11-21T10:18:02;98.47;;;27.90;;
3949;SDS011;53057;50.988;6.314;2023-11-21T10:20:31;89.47;;;30.23;;
3949;SDS011;53057;50.988;6.314;2023-11-21T10:22:59;84.10;;;30.13;;
3949;SDS011;53057;50.988;6.314;2023-11-21T10:25:29;94.67;;;32.23;;
3949;SDS011;53057;50.988;6.314;2023-11-21T10:28:01;91.90;;;28.47;;
3949;SDS011;53057;50.988;6.314;2023-11-21T10:30:32;64.33;;;26.10;;
3949;SDS011;53057;50.988;6.314;2023-11-21T10:33:00;78.00;;;27.33;;
3949;SDS011;53057;50.988;6.314;2023-11-21T10:35:46;71.43;;;27.53;;
3949;SDS011;53057;50.988;6.314;2023-11-21T10:38:15;82.47;;;28.13;;
3949;SDS011;53057;50.988;6.314;2023-11-21T10:40:45;85.97;;;28.97;;
3949;SDS011;53057;50.988;6.314;2023-11-21T10:43:14;79.23;;;28.83;;
3949;SDS011;53057;50.988;6.314;2023-11-21T10:45:45;67.97;;;28.10;;
3949;SDS011;53057;50.988;6.314;2023-11-21T10:48:14;79.30;;;29.97;;
3949;SDS011;53057;50.988;6.314;2023-11-21T10:50:45;82.67;;;26.80;;
3949;SDS011;53057;50.988;6.314;2023-11-21T10:53:14;79.33;;;25.60;;
3949;SDS011;53057;50.988;6.314;2023-11-21T10:55:42;77.93;;;30.03;;
3949;SDS011;53057;50.988;6.314;2023-11-21T10:58:13;96.63;;;28.00;;
3949;SDS011;53057;50.988;6.314;2023-11-21T11:00:42;83.30;;;28.87;;
3949;SDS011;53057;50.988;6.314;2023-11-21T11:03:12;91.33;;;28.70;;
3949;SDS011;53057;50.988;6.314;2023-11-21T11:05:43;66.77;;;25.57;;
3949;SDS011;53057;50.988;6.314;2023-11-21T11:08:20;68.33;;;28.37;;
3949;SDS011;53057;50.988;6.314;2023-11-21T11:10:54;66.77;;;25.90;;
3949;SDS011;53057;50.988;6.314;2023-11-21T11:13:21;70.97;;;25.80;;
3949;SDS011;53057;50.988;6.314;2023-11-21T11:15:50;69.93;;;26.40;;
3949;SDS011;53057;50.988;6.314;2023-11-21T11:18:18;65.67;;;27.50;;
3949;SDS011;53057;50.988;6.314;2023-11-21T11:20:48;80.17;;;29.30;;
3949;SDS011;53057;50.988;6.314;2023-11-21T11:31:32;64.20;;;25.63;;
3949;SDS011;53057;50.988;6.314;2023-11-21T11:34:39;67.47;;;27.53;;
3949;SDS011;53057;50.988;6.314;2023-11-21T11:39:30;80.60;;;30.07;;
3949;SDS011;53057;50.988;6.314;2023-11-21T11:41:58;58.33;;;25.17;;
3949;SDS011;53057;50.988;6.314;2023-11-21T11:47:16;59.83;;;23.57;;
3949;SDS011;53057;50.988;6.314;2023-11-21T11:49:56;58.53;;;24.10;;
3949;SDS011;53057;50.988;6.314;2023-11-21T11:55:02;61.63;;;25.07;;
3949;SDS011;53057;50.988;6.314;2023-11-21T11:57:31;62.73;;;25.77;;
3949;SDS011;53057;50.988;6.314;2023-11-21T12:00:09;54.10;;;27.07;;
3949;SDS011;53057;50.988;6.314;2023-11-21T12:02:40;58.20;;;23.80;;
3949;SDS011;53057;50.988;6.314;2023-11-21T12:05:11;61.67;;;27.43;;
3949;SDS011;53057;50.988;6.314;2023-11-21T12:10:17;44.53;;;21.60;;
3949;SDS011;53057;50.988;6.314;2023-11-21T12:12:46;46.50;;;21.03;;
3949;SDS011;53057;50.988;6.314;2023-11-21T12:15:12;48.77;;;22.93;;
3949;SDS011;53057;50.988;6.314;2023-11-21T12:17:41;44.77;;;20.83;;
3949;SDS011;53057;50.988;6.314;2023-11-21T12:20:09;46.57;;;23.80;;
3949;SDS011;53057;50.988;6.314;2023-11-21T12:22:50;53.97;;;23.40;;
3949;SDS011;53057;50.988;6.314;2023-11-21T12:25:19;48.23;;;22.80;;
3949;SDS011;53057;50.988;6.314;2023-11-21T12:27:49;63.87;;;23.93;;
3949;SDS011;53057;50.988;6.314;2023-11-21T12:30:18;49.10;;;22.87;;
3949;SDS011;53057;50.988;6.314;2023-11-21T12:32:48;57.03;;;22.57;;
3949;SDS011;53057;50.988;6.314;2023-11-21T12:35:17;42.33;;;22.37;;
3949;SDS011;53057;50.988;6.314;2023-11-21T12:37:46;48.83;;;22.60;;
3949;SDS011;53057;50.988;6.314;2023-11-21T12:40:15;55.53;;;23.57;;
3949;SDS011;53057;50.988;6.314;2023-11-21T12:42:45;49.20;;;24.03;;
3949;SDS011;53057;50.988;6.314;2023-11-21T12:47:43;51.27;;;24.53;;
3949;SDS011;53057;50.988;6.314;2023-11-21T12:50:10;55.00;;;24.13;;
3949;SDS011;53057;50.988;6.314;2023-11-21T12:52:41;49.73;;;24.00;;
3949;SDS011;53057;50.988;6.314;2023-11-21T12:55:15;64.93;;;22.90;;
3949;SDS011;53057;50.988;6.314;2023-11-21T12:57:43;50.20;;;22.50;;
3949;SDS011;53057;50.988;6.314;2023-11-21T13:00:12;56.37;;;24.23;;
3949;SDS011;53057;50.988;6.314;2023-11-21T13:02:45;58.80;;;22.27;;
3949;SDS011;53057;50.988;6.314;2023-11-21T13:05:22;54.50;;;25.13;;
3949;SDS011;53057;50.988;6.314;2023-11-21T13:07:50;62.63;;;26.40;;
3949;SDS011;53057;50.988;6.314;2023-11-21T13:10:22;57.10;;;25.17;;
3949;SDS011;53057;50.988;6.314;2023-11-21T13:12:52;60.57;;;24.40;;
3949;SDS011;53057;50.988;6.314;2023-11-21T13:15:20;65.17;;;27.77;;
3949;SDS011;53057;50.988;6.314;2023-11-21T13:17:47;50.40;;;25.67;;
3949;SDS011;53057;50.988;6.314;2023-11-21T13:20:14;64.20;;;26.20;;
3949;SDS011;53057;50.988;6.314;2023-11-21T13:25:18;54.87;;;25.00;;
3949;SDS011;53057;50.988;6.314;2023-11-21T13:27:46;59.27;;;25.03;;
3949;SDS011;53057;50.988;6.314;2023-11-21T13:30:14;52.23;;;21.93;;
3949;SDS011;53057;50.988;6.314;2023-11-21T13:32:42;61.53;;;20.70;;
3949;SDS011;53057;50.988;6.314;2023-11-21T13:35:11;48.93;;;20.17;;
3949;SDS011;53057;50.988;6.314;2023-11-21T13:37:48;60.50;;;23.83;;
3949;SDS011;53057;50.988;6.314;2023-11-21T13:40:20;55.23;;;21.07;;
3949;SDS011;53057;50.988;6.314;2023-11-21T13:42:49;64.43;;;24.00;;
3949;SDS011;53057;50.988;6.314;2023-11-21T13:45:21;57.10;;;23.17;;
3949;SDS011;53057;50.988;6.314;2023-11-21T13:47:50;47.67;;;20.47;;
3949;SDS011;53057;50.988;6.314;2023-11-21T13:50:25;69.33;;;21.70;;
3949;SDS011;53057;50.988;6.314;2023-11-21T13:53:00;65.53;;;21.07;;
3949;SDS011;53057;50.988;6.314;2023-11-21T13:55:36;43.60;;;15.37;;
3949;SDS011;53057;50.988;6.314;2023-11-21T13:58:03;33.30;;;15.00;;
3949;SDS011;53057;50.988;6.314;2023-11-21T14:00:31;42.40;;;16.13;;
3949;SDS011;53057;50.988;6.314;2023-11-21T14:03:23;42.53;;;15.07;;
3949;SDS011;53057;50.988;6.314;2023-11-21T14:05:52;40.10;;;16.67;;
3949;SDS011;53057;50.988;6.314;2023-11-21T14:08:19;47.73;;;17.50;;
3949;SDS011;53057;50.988;6.314;2023-11-21T14:10:47;35.80;;;17.03;;
3949;SDS011;53057;50.988;6.314;2023-11-21T14:13:22;50.53;;;17.10;;
3949;SDS011;53057;50.988;6.314;2023-11-21T14:15:50;43.93;;;14.33;;
3949;SDS011;53057;50.988;6.314;2023-11-21T14:18:19;55.73;;;18.30;;
3949;SDS011;53057;50.988;6.314;2023-11-21T14:20:54;46.93;;;17.83;;
3949;SDS011;53057;50.988;6.314;2023-11-21T14:23:21;42.23;;;17.07;;
3949;SDS011;53057;50.988;6.314;2023-11-21T14:25:51;40.30;;;16.33;;
3949;SDS011;53057;50.988;6.314;2023-11-21T14:28:18;49.63;;;18.27;;
3949;SDS011;53057;50.988;6.314;2023-11-21T14:30:46;41.03;;;17.07;;
3949;SDS011;53057;50.988;6.314;2023-11-21T14:33:14;48.50;;;18.10;;
3949;SDS011;53057;50.988;6.314;2023-11-21T14:35:44;44.00;;;16.73;;
3949;SDS011;53057;50.988;6.314;2023-11-21T14:38:12;47.60;;;18.23;;
3949;SDS011;53057;50.988;6.314;2023-11-21T14:40:42;48.10;;;19.20;;
3949;SDS011;53057;50.988;6.314;2023-11-21T14:43:09;55.10;;;20.37;;
3949;SDS011;53057;50.988;6.314;2023-11-21T14:45:37;57.27;;;19.07;;
3949;SDS011;53057;50.988;6.314;2023-11-21T14:48:05;54.40;;;18.93;;
3949;SDS011;53057;50.988;6.314;2023-11-21T14:50:34;41.30;;;19.10;;
3949;SDS011;53057;50.988;6.314;2023-11-21T14:53:26;44.80;;;18.33;;
3949;SDS011;53057;50.988;6.314;2023-11-21T14:56:10;44.37;;;18.37;;
3949;SDS011;53057;50.988;6.314;2023-11-21T14:58:37;44.77;;;19.47;;
3949;SDS011;53057;50.988;6.314;2023-11-21T15:01:05;57.13;;;22.20;;